F/V Barr Avel — FHAO — position and weather

sailwx.info

Track history (hours):
 
Tides and Currents Weather Stations Pressure Air Temp Water Temp Dewpoint Dewpoint Depression Visibility Wind Speed Wind Dir Waves Ship Positions

F/V Barr Avel

Last reported at 2018-Feb-21 20:35 UTC. Time now 2018-Feb-22 07:23 UTC.
Position N 48°06' W 004°20'.

Length 16 m.

Type: Fishing. MMSI: 228293000.

Date/timePositionNaut miles runAvg speedWind from/ knotsBaromVisibWave heightAir tempDewpointWater temp
2018-Feb-21 20:35N 48°06' W 004°20'0 0.9
2018-Feb-21 20:30N 48°06' W 004°19'2 3.3
2018-Feb-21 20:00N 48°07' W 004°20'2 3.1
2018-Feb-21 19:30N 48°09' W 004°21'2 3.3
2018-Feb-21 19:00N 48°08' W 004°22'2 3.8
2018-Feb-21 18:30N 48°08' W 004°25'2 3.3
2018-Feb-21 18:00N 48°10' W 004°24'0 0.4
2018-Feb-21 17:30N 48°10' W 004°24'1 1.0
2018-Feb-21 17:01N 48°09' W 004°24'2 4.0
2018-Feb-21 16:30N 48°11' W 004°22'2 3.6
2018-Feb-21 16:00N 48°09' W 004°20'2 4.3
2018-Feb-21 15:31N 48°08' W 004°23'3 5.7
2018-Feb-21 15:00N 48°06' W 004°20'0 0.0
2018-Feb-20 21:03N 48°06' W 004°20'0 0.5
2018-Feb-20 21:00N 48°06' W 004°20'0 0.2
2018-Feb-20 20:31N 48°06' W 004°19'3 5.9
2018-Feb-20 20:00N 48°08' W 004°23'0 0.3
2018-Feb-20 19:30N 48°07' W 004°23'0 0.1
2018-Feb-20 19:00N 48°07' W 004°23'1 1.9
2018-Feb-20 18:30N 48°08' W 004°23'0 0.2
2018-Feb-20 18:00N 48°08' W 004°23'3 6.1
2018-Feb-20 17:30N 48°10' W 004°27'3 5.4
2018-Feb-20 17:00N 48°12' W 004°29'0 0.4
2018-Feb-20 16:30N 48°11' W 004°29'1 2.6
2018-Feb-20 16:00N 48°11' W 004°27'5 8.9
2018-Feb-20 15:28N 48°08' W 004°22'3 6.1
2018-Feb-20 15:00N 48°06' W 004°20'0 0.0
2018-Feb-19 22:11N 48°06' W 004°20'0 0.4
2018-Feb-19 22:00N 48°06' W 004°19'0 0.0
2018-Feb-19 21:30N 48°06' W 004°19'2 4.0
2018-Feb-19 21:01N 48°08' W 004°21'5 9.6
2018-Feb-19 20:31N 48°11' W 004°26'3 6.4
2018-Feb-19 20:00N 48°10' W 004°31'0 0.7
2018-Feb-19 19:30N 48°11' W 004°31'2 4.7
2018-Feb-19 18:59N 48°10' W 004°28'4 8.2
2018-Feb-19 18:30N 48°09' W 004°22'3 5.4
2018-Feb-19 18:00N 48°08' W 004°18'2 4.9
2018-Feb-19 17:30N 48°07' W 004°22'0 0.7
2018-Feb-19 17:00N 48°07' W 004°22'1 1.6
2018-Feb-19 16:30N 48°08' W 004°22'1 1.2
2018-Feb-19 16:01N 48°07' W 004°23'1 1.0
2018-Feb-19 15:30N 48°07' W 004°22'2 4.1
2018-Feb-19 15:00N 48°06' W 004°20'0 0.0
2018-Feb-18 21:14N 48°06' W 004°20'0 0.5
2018-Feb-18 21:00N 48°06' W 004°19'0 0.5
2018-Feb-18 20:30N 48°06' W 004°19'3 6.5
2018-Feb-18 20:00N 48°07' W 004°24'0 0.0
2018-Feb-18 19:30N 48°07' W 004°24'0 0.2
2018-Feb-18 19:00N 48°07' W 004°24'3 6.8
2018-Feb-18 18:30N 48°08' W 004°19'1 2.5
2018-Feb-18 18:01N 48°08' W 004°18'0 0.2
2018-Feb-18 17:30N 48°08' W 004°18'2 3.2
2018-Feb-18 16:57N 48°08' W 004°20'0 0.6
2018-Feb-18 16:29N 48°08' W 004°21'0 0.3
2018-Feb-18 15:58N 48°08' W 004°21'1 1.9
2018-Feb-18 15:30N 48°09' W 004°20'3 5.5
2018-Feb-18 15:00N 48°06' W 004°20'  
2018-Feb-15 21:25N 48°06' W 004°20'0 0.2
2018-Feb-15 21:00N 48°06' W 004°19'0 0.0
2018-Feb-15 20:30N 48°06' W 004°19'3 5.4
2018-Feb-15 20:00N 48°08' W 004°22'0 0.7
2018-Feb-15 19:30N 48°08' W 004°22'2 3.4
2018-Feb-15 19:00N 48°09' W 004°20'4 7.9
2018-Feb-15 18:30N 48°07' W 004°24'2 4.5
2018-Feb-15 18:00N 48°09' W 004°23'1 1.4
2018-Feb-15 17:31N 48°09' W 004°22'0 0.6
2018-Feb-15 17:00N 48°09' W 004°22'1 2.3
2018-Feb-15 16:30N 48°09' W 004°20'1 1.8
2018-Feb-15 16:00N 48°08' W 004°20'2 3.5
2018-Feb-15 15:30N 48°08' W 004°23'3 6.3
2018-Feb-15 15:00N 48°06' W 004°19'0 0.0
2018-Feb-14 22:41N 48°06' W 004°20'0 0.0
2018-Feb-14 22:30N 48°06' W 004°20'0 0.1
2018-Feb-14 22:00N 48°06' W 004°19'0 0.0
2018-Feb-14 21:30N 48°06' W 004°19'0 0.0
2018-Feb-14 21:00N 48°06' W 004°19'0 0.5
2018-Feb-14 20:30N 48°06' W 004°19'4 7.0
2018-Feb-14 19:59N 48°09' W 004°21'0 0.2
2018-Feb-14 19:30N 48°09' W 004°21'0 0.5
2018-Feb-14 18:58N 48°09' W 004°21'0 0.1
2018-Feb-14 18:29N 48°09' W 004°22'2 4.4
2018-Feb-14 18:00N 48°07' W 004°23'1 2.5
2018-Feb-14 17:29N 48°08' W 004°21'1 1.8
2018-Feb-14 16:58N 48°08' W 004°20'0 0.3
2018-Feb-14 16:30N 48°08' W 004°20'2 2.7
2018-Feb-14 15:55N 48°08' W 004°22'0 0.5
2018-Feb-14 15:29N 48°07' W 004°22'2 4.7
2018-Feb-14 15:00N 48°06' W 004°20'0 0.0
2018-Feb-14 14:30N 48°06' W 004°20'0 0.0
2018-Feb-13 17:23N 48°06' W 004°20'0 0.0
2018-Feb-13 17:00N 48°06' W 004°20'0 0.0
2018-Feb-13 16:30N 48°06' W 004°20'0 0.0
2018-Feb-13 16:00N 48°06' W 004°20'0 0.0
2018-Feb-13 15:30N 48°06' W 004°20'0 0.0
2018-Feb-13 15:01N 48°06' W 004°20'0 0.0
2018-Feb-12 22:43N 48°06' W 004°20'0 0.0
2018-Feb-12 22:30N 48°06' W 004°20'0 0.0
2018-Feb-12 22:00N 48°06' W 004°20'0 0.0
2018-Feb-12 21:30N 48°06' W 004°20'0 0.0
2018-Feb-12 20:59N 48°06' W 004°20'0 0.0
2018-Feb-12 20:30N 48°06' W 004°20'0 0.0
2018-Feb-12 20:00N 48°06' W 004°20'0 0.9
2018-Feb-12 19:30N 48°06' W 004°19'3 5.5
2018-Feb-12 18:57N 48°07' W 004°24'0 0.2
2018-Feb-12 18:30N 48°07' W 004°24'3 4.9
2018-Feb-12 17:58N 48°08' W 004°20'2 2.9
2018-Feb-12 17:27N 48°08' W 004°22'0 0.3
2018-Feb-12 17:00N 48°07' W 004°22'0 0.8
2018-Feb-12 16:30N 48°07' W 004°22'1 1.3
2018-Feb-12 15:59N 48°08' W 004°22'0 0.2
2018-Feb-12 15:30N 48°08' W 004°22'2 4.7
2018-Feb-12 15:00N 48°06' W 004°20'  
Track history (hours):
 
Tides and Currents Weather Stations Pressure Air Temp Water Temp Dewpoint Dewpoint Depression Visibility Wind Speed Wind Dir Waves Ship Positions

F/V Barr Avel

Last reported at 2018-Feb-21 20:35 UTC. Time now 2018-Feb-22 07:23 UTC.
Position N 48°06' W 004°20'.

Length 16 m.

Type: Fishing. MMSI: 228293000.

Date/timePositionNaut miles runAvg speedWind from/ knotsBaromVisibWave heightAir tempDewpointWater temp
2018-Feb-21 20:35N 48°06' W 004°20'0 0.9
2018-Feb-21 20:30N 48°06' W 004°19'2 3.3
2018-Feb-21 20:00N 48°07' W 004°20'2 3.1
2018-Feb-21 19:30N 48°09' W 004°21'2 3.3
2018-Feb-21 19:00N 48°08' W 004°22'2 3.8
2018-Feb-21 18:30N 48°08' W 004°25'2 3.3
2018-Feb-21 18:00N 48°10' W 004°24'0 0.4
2018-Feb-21 17:30N 48°10' W 004°24'1 1.0
2018-Feb-21 17:01N 48°09' W 004°24'2 4.0
2018-Feb-21 16:30N 48°11' W 004°22'2 3.6
2018-Feb-21 16:00N 48°09' W 004°20'2 4.3
2018-Feb-21 15:31N 48°08' W 004°23'3 5.7
2018-Feb-21 15:00N 48°06' W 004°20'0 0.0
2018-Feb-20 21:03N 48°06' W 004°20'0 0.5
2018-Feb-20 21:00N 48°06' W 004°20'0 0.2
2018-Feb-20 20:31N 48°06' W 004°19'3 5.9
2018-Feb-20 20:00N 48°08' W 004°23'0 0.3
2018-Feb-20 19:30N 48°07' W 004°23'0 0.1
2018-Feb-20 19:00N 48°07' W 004°23'1 1.9
2018-Feb-20 18:30N 48°08' W 004°23'0 0.2
2018-Feb-20 18:00N 48°08' W 004°23'3 6.1
2018-Feb-20 17:30N 48°10' W 004°27'3 5.4
2018-Feb-20 17:00N 48°12' W 004°29'0 0.4
2018-Feb-20 16:30N 48°11' W 004°29'1 2.6
2018-Feb-20 16:00N 48°11' W 004°27'5 8.9
2018-Feb-20 15:28N 48°08' W 004°22'3 6.1
2018-Feb-20 15:00N 48°06' W 004°20'0 0.0
2018-Feb-19 22:11N 48°06' W 004°20'0 0.4
2018-Feb-19 22:00N 48°06' W 004°19'0 0.0
2018-Feb-19 21:30N 48°06' W 004°19'2 4.0
2018-Feb-19 21:01N 48°08' W 004°21'5 9.6
2018-Feb-19 20:31N 48°11' W 004°26'3 6.4
2018-Feb-19 20:00N 48°10' W 004°31'0 0.7
2018-Feb-19 19:30N 48°11' W 004°31'2 4.7
2018-Feb-19 18:59N 48°10' W 004°28'4 8.2
2018-Feb-19 18:30N 48°09' W 004°22'3 5.4
2018-Feb-19 18:00N 48°08' W 004°18'2 4.9
2018-Feb-19 17:30N 48°07' W 004°22'0 0.7
2018-Feb-19 17:00N 48°07' W 004°22'1 1.6
2018-Feb-19 16:30N 48°08' W 004°22'1 1.2
2018-Feb-19 16:01N 48°07' W 004°23'1 1.0
2018-Feb-19 15:30N 48°07' W 004°22'2 4.1
2018-Feb-19 15:00N 48°06' W 004°20'0 0.0
2018-Feb-18 21:14N 48°06' W 004°20'0 0.5
2018-Feb-18 21:00N 48°06' W 004°19'0 0.5
2018-Feb-18 20:30N 48°06' W 004°19'3 6.5
2018-Feb-18 20:00N 48°07' W 004°24'0 0.0
2018-Feb-18 19:30N 48°07' W 004°24'0 0.2
2018-Feb-18 19:00N 48°07' W 004°24'3 6.8
2018-Feb-18 18:30N 48°08' W 004°19'1 2.5
2018-Feb-18 18:01N 48°08' W 004°18'0 0.2
2018-Feb-18 17:30N 48°08' W 004°18'2 3.2
2018-Feb-18 16:57N 48°08' W 004°20'0 0.6
2018-Feb-18 16:29N 48°08' W 004°21'0 0.3
2018-Feb-18 15:58N 48°08' W 004°21'1 1.9
2018-Feb-18 15:30N 48°09' W 004°20'3 5.5
2018-Feb-18 15:00N 48°06' W 004°20'  
2018-Feb-15 21:25N 48°06' W 004°20'0 0.2
2018-Feb-15 21:00N 48°06' W 004°19'0 0.0
2018-Feb-15 20:30N 48°06' W 004°19'3 5.4
2018-Feb-15 20:00N 48°08' W 004°22'0 0.7
2018-Feb-15 19:30N 48°08' W 004°22'2 3.4
2018-Feb-15 19:00N 48°09' W 004°20'4 7.9
2018-Feb-15 18:30N 48°07' W 004°24'2 4.5
2018-Feb-15 18:00N 48°09' W 004°23'1 1.4
2018-Feb-15 17:31N 48°09' W 004°22'0 0.6
2018-Feb-15 17:00N 48°09' W 004°22'1 2.3
2018-Feb-15 16:30N 48°09' W 004°20'1 1.8
2018-Feb-15 16:00N 48°08' W 004°20'2 3.5
2018-Feb-15 15:30N 48°08' W 004°23'3 6.3
2018-Feb-15 15:00N 48°06' W 004°19'0 0.0
2018-Feb-14 22:41N 48°06' W 004°20'0 0.0
2018-Feb-14 22:30N 48°06' W 004°20'0 0.1
2018-Feb-14 22:00N 48°06' W 004°19'0 0.0
2018-Feb-14 21:30N 48°06' W 004°19'0 0.0
2018-Feb-14 21:00N 48°06' W 004°19'0 0.5
2018-Feb-14 20:30N 48°06' W 004°19'4 7.0
2018-Feb-14 19:59N 48°09' W 004°21'0 0.2
2018-Feb-14 19:30N 48°09' W 004°21'0 0.5
2018-Feb-14 18:58N 48°09' W 004°21'0 0.1
2018-Feb-14 18:29N 48°09' W 004°22'2 4.4
2018-Feb-14 18:00N 48°07' W 004°23'1 2.5
2018-Feb-14 17:29N 48°08' W 004°21'1 1.8
2018-Feb-14 16:58N 48°08' W 004°20'0 0.3
2018-Feb-14 16:30N 48°08' W 004°20'2 2.7
2018-Feb-14 15:55N 48°08' W 004°22'0 0.5
2018-Feb-14 15:29N 48°07' W 004°22'2 4.7
2018-Feb-14 15:00N 48°06' W 004°20'0 0.0
2018-Feb-14 14:30N 48°06' W 004°20'0 0.0
2018-Feb-13 17:23N 48°06' W 004°20'0 0.0
2018-Feb-13 17:00N 48°06' W 004°20'0 0.0
2018-Feb-13 16:30N 48°06' W 004°20'0 0.0
2018-Feb-13 16:00N 48°06' W 004°20'0 0.0
2018-Feb-13 15:30N 48°06' W 004°20'0 0.0
2018-Feb-13 15:01N 48°06' W 004°20'0 0.0
2018-Feb-12 22:43N 48°06' W 004°20'0 0.0
2018-Feb-12 22:30N 48°06' W 004°20'0 0.0
2018-Feb-12 22:00N 48°06' W 004°20'0 0.0
2018-Feb-12 21:30N 48°06' W 004°20'0 0.0
2018-Feb-12 20:59N 48°06' W 004°20'0 0.0
2018-Feb-12 20:30N 48°06' W 004°20'0 0.0
2018-Feb-12 20:00N 48°06' W 004°20'0 0.9
2018-Feb-12 19:30N 48°06' W 004°19'3 5.5
2018-Feb-12 18:57N 48°07' W 004°24'0 0.2
2018-Feb-12 18:30N 48°07' W 004°24'3 4.9
2018-Feb-12 17:58N 48°08' W 004°20'2 2.9
2018-Feb-12 17:27N 48°08' W 004°22'0 0.3
2018-Feb-12 17:00N 48°07' W 004°22'0 0.8
2018-Feb-12 16:30N 48°07' W 004°22'1 1.3
2018-Feb-12 15:59N 48°08' W 004°22'0 0.2
2018-Feb-12 15:30N 48°08' W 004°22'2 4.7
2018-Feb-12 15:00N 48°06' W 004°20'  

Dump ship's entire track history